RJDC

Details ICAO RJDC (UBJ)
Name YAMAGUCHI UBE
Region Japan
Timezone Asia/Tokyo (UTC+9.0)
Plans Departing 9
Arriving 22
Stats Elevation 23 ft / 7 m (AMSL)
Location 33.929913° 131.278765°
Runways 1
Magnetic Variation 7.594° W
Sunrise 2018-05-26 20:08:23 UTC / 2018-05-27 05:08:23 Local
Sunset 2018-05-27 10:18:29 UTC / 2018-05-27 19:18:29 Local
Advertisement - Login to hide

Runways

ID Width Length Bearing (true) Bearing (mag) Surface Threshold Offset Overrun Length
07 150 ft / 46 m 8,196 ft / 2,498 m 62.16° 69.75° Asphalt 0 ft / 0 m 210 ft / 64 m
25 150 ft / 46 m 8,196 ft / 2,498 m 242.17° 249.76° Asphalt 0 ft / 0 m 210 ft / 64 m

Approach Navaids

Runway Type Ident Frequency Range Bearing (true) Bearing (mag) Slope Elevation
07 Localiser IUB 110.10 MHz 18 nm / 33 km 62.16° 69.76° - 23 ft / 7 m (AMSL)
07 Glidescope IUB 110.10 MHz 10 nm / 19 km 62.16° 69.76° 3.00° 39 ft / 12 m (AMSL)

Map

Weather


0- 5 10 15 20 25 30 35+ Temperature / ° C

Clouds and Precipitation
Forecast for 2018-05-27 00:00 UTC. Updated 44 minutes ago

Ground ~20,000 ft ~40,000 ft Winds

METAR

RJDC 270000Z 10005KT CAVOK 20/18 Q1012

TAF

Not found
Warning: Do not use this data for real-world aviation or navigation. No guarantee of current accuracy is given.